Time;durP1;ratioP1;P1;durP2;ratioP2;P2;SDS_P1;SDS_P2;PMS_P1;PMS_P2;Temp;Humidity;BMP_temperature;BMP_pressure;BME280_temperature;BME280_humidity;BME280_pressure;Samples;Min_cycle;Max_cycle;Signal;HPM_P1;HPM_P2
2021/07/20 00:01:53;;;;;;;;;;;16.40;99.90;;;;;;5094443;28;19912;-63
2021/07/20 00:04:19;;;;;;;;;;;16.40;99.90;;;;;;5094494;28;19912;-63
2021/07/20 00:06:45;;;;;;;;;;;16.40;99.90;;;;;;5094610;28;20316;-63
2021/07/20 00:09:11;;;;;;;;;;;16.30;99.90;;;;;;5092270;28;19912;-63
2021/07/20 00:11:37;;;;;;;;;;;16.20;99.90;;;;;;5094450;28;19916;-63
2021/07/20 00:14:03;;;;;;;;;;;16.20;99.90;;;;;;5094207;28;19927;-63
2021/07/20 00:16:29;;;;;;;;;;;16.20;99.90;;;;;;5094506;28;19946;-63
2021/07/20 00:18:55;;;;;;;;;;;16.20;99.90;;;;;;5094240;28;19915;-63
2021/07/20 00:21:21;;;;;;;;;;;16.20;99.90;;;;;;5094767;28;20276;-63
2021/07/20 00:23:47;;;;;;;;;;;16.20;99.90;;;;;;5094099;28;19919;-63
2021/07/20 00:26:13;;;;;;;;;;;16.20;99.90;;;;;;5094078;28;19915;-62
2021/07/20 00:28:39;;;;;;;;;;;16.10;99.90;;;;;;5094039;28;19916;-62
2021/07/20 00:31:05;;;;;;;;;;;16.10;99.90;;;;;;5093795;28;20466;-63
2021/07/20 00:33:31;;;;;;;;;;;16.10;99.90;;;;;;5094046;28;19928;-63
2021/07/20 00:35:56;;;;;;;;;;;16.10;99.90;;;;;;5093790;28;19958;-62
2021/07/20 00:38:23;;;;;;;;;;;16.00;99.90;;;;;;5075656;28;19948;-62
2021/07/20 00:40:48;;;;;;;;;;;16.00;99.90;;;;;;5093516;28;19935;-62
2021/07/20 00:43:14;;;;;;;;;;;16.00;99.90;;;;;;5093651;28;21613;-61
2021/07/20 00:45:40;;;;;;;;;;;16.10;99.90;;;;;;5092724;28;19912;-62
2021/07/20 00:48:06;;;;;;;;;;;16.00;99.90;;;;;;5091706;28;19913;-63
2021/07/20 00:50:33;;;;;;;;;;;16.00;99.90;;;;;;5093496;28;19927;-62
2021/07/20 00:52:59;;;;;;;;;;;16.00;99.90;;;;;;5093486;28;20289;-63
2021/07/20 00:55:25;;;;;;;;;;;16.00;99.90;;;;;;5093413;28;19913;-62
2021/07/20 00:57:54;;;;;;;;;;;16.00;99.90;;;;;;5093404;28;19908;-63
2021/07/20 01:00:20;;;;;;;;;;;16.00;99.90;;;;;;5093303;28;19912;-63
2021/07/20 01:02:46;;;;;;;;;;;16.00;99.90;;;;;;5093405;28;19920;-63
2021/07/20 01:05:13;;;;;;;;;;;16.00;99.90;;;;;;5093363;28;19916;-63
2021/07/20 01:07:40;;;;;;;;;;;16.00;99.90;;;;;;5093817;28;19912;-62
2021/07/20 01:10:06;;;;;;;;;;;16.00;99.90;;;;;;5093277;28;20344;-63
2021/07/20 01:12:34;;;;;;;;;;;16.00;99.90;;;;;;5093150;28;19920;-63
2021/07/20 01:15:00;;;;;;;;;;;16.00;99.90;;;;;;5091776;28;19978;-63
2021/07/20 01:17:26;;;;;;;;;;;16.00;99.90;;;;;;5093268;28;19920;-63
2021/07/20 01:19:52;;;;;;;;;;;16.00;99.90;;;;;;5093272;28;21743;-63
2021/07/20 01:22:22;;;;;;;;;;;15.90;99.90;;;;;;5093073;28;19908;-63
2021/07/20 01:24:48;;;;;;;;;;;15.90;99.90;;;;;;5093071;28;20008;-63
2021/07/20 01:27:14;;;;;;;;;;;15.90;99.90;;;;;;5090870;28;19912;-63
2021/07/20 01:29:40;;;;;;;;;;;15.90;99.90;;;;;;5092901;28;19919;-63
2021/07/20 01:32:06;;;;;;;;;;;15.90;99.90;;;;;;5092943;28;19923;-63
2021/07/20 01:34:32;;;;;;;;;;;15.80;99.90;;;;;;5091652;28;19908;-63
2021/07/20 01:36:58;;;;;;;;;;;15.90;99.90;;;;;;5091601;28;19967;-63
2021/07/20 01:39:24;;;;;;;;;;;15.90;99.90;;;;;;5092981;28;19912;-63
2021/07/20 01:41:50;;;;;;;;;;;15.90;99.90;;;;;;5089280;28;20376;-62
2021/07/20 01:44:16;;;;;;;;;;;15.90;99.90;;;;;;5091418;28;19912;-62
2021/07/20 01:46:42;;;;;;;;;;;15.80;99.90;;;;;;5091681;28;19908;-64
2021/07/20 01:49:11;;;;;;;;;;;15.90;99.90;;;;;;5091645;28;19916;-63
2021/07/20 01:51:37;;;;;;;;;;;15.90;99.90;;;;;;5091239;28;19912;-63
2021/07/20 01:54:04;;;;;;;;;;;15.90;99.90;;;;;;5092605;28;20400;-63
2021/07/20 01:56:30;;;;;;;;;;;15.90;99.90;;;;;;5092558;28;19912;-63
2021/07/20 01:58:56;;;;;;;;;;;15.90;99.90;;;;;;5091272;28;19958;-63
2021/07/20 02:01:23;;;;;;;;;;;15.80;99.90;;;;;;5091387;28;19908;-63
2021/07/20 02:04:11;;;;;;;;;;;15.90;99.90;;;;;;5092642;28;19916;-63
2021/07/20 02:09:23;;;;;;;;;;;15.80;99.90;;;;;;5097613;28;20288;-63
2021/07/20 02:11:49;;;;;;;;;;;15.70;99.90;;;;;;5091266;28;19916;-63
2021/07/20 02:14:16;;;;;;;;;;;15.60;99.90;;;;;;5091256;28;19908;-63
2021/07/20 02:16:43;;;;;;;;;;;15.70;99.90;;;;;;5091212;28;19908;-63
2021/07/20 02:19:24;;;;;;;;;;;15.60;99.90;;;;;;5092519;28;19931;-63
2021/07/20 02:21:52;;;;;;;;;;;15.70;99.90;;;;;;5092337;28;19908;-63
2021/07/20 02:24:18;;;;;;;;;;;15.70;99.90;;;;;;5092182;28;19908;-63
2021/07/20 02:26:45;;;;;;;;;;;15.70;99.90;;;;;;5092255;28;19908;-63
2021/07/20 02:29:11;;;;;;;;;;;15.60;99.90;;;;;;5091139;28;19915;-63
2021/07/20 02:31:37;;;;;;;;;;;15.70;99.90;;;;;;5092321;28;19912;-63
2021/07/20 02:34:03;;;;;;;;;;;15.60;99.90;;;;;;5091076;28;19912;-63
2021/07/20 02:36:29;;;;;;;;;;;15.70;99.90;;;;;;5091002;28;19919;-63
2021/07/20 02:38:55;;;;;;;;;;;15.60;99.90;;;;;;5091252;28;20293;-63
2021/07/20 02:41:21;;;;;;;;;;;15.60;99.90;;;;;;5091107;28;20293;-63
2021/07/20 02:43:47;;;;;;;;;;;15.60;99.90;;;;;;5091175;28;19908;-63
2021/07/20 02:46:16;;;;;;;;;;;15.60;99.90;;;;;;5073267;28;19908;-63
2021/07/20 02:48:42;;;;;;;;;;;15.60;99.90;;;;;;5092160;28;19939;-62
2021/07/20 02:51:08;;;;;;;;;;;15.60;99.90;;;;;;5090749;28;19908;-62
2021/07/20 02:53:35;;;;;;;;;;;15.60;99.90;;;;;;5092105;28;19916;-62
2021/07/20 02:56:01;;;;;;;;;;;15.50;99.90;;;;;;5090851;28;20288;-62
2021/07/20 02:58:27;;;;;;;;;;;15.50;99.90;;;;;;5090952;28;19908;-62
2021/07/20 03:00:54;;;;;;;;;;;15.50;99.90;;;;;;5090828;28;20661;-62
2021/07/20 03:03:20;;;;;;;;;;;15.60;99.90;;;;;;5092688;28;19915;-62
2021/07/20 03:05:46;;;;;;;;;;;15.60;99.90;;;;;;5092482;28;19912;-62
2021/07/20 03:08:12;;;;;;;;;;;15.60;99.90;;;;;;5090850;28;20294;-63
2021/07/20 03:10:38;;;;;;;;;;;15.60;99.90;;;;;;5094489;28;19912;-62
2021/07/20 03:13:05;;;;;;;;;;;15.60;99.90;;;;;;5095271;28;19985;-62
2021/07/20 03:15:31;;;;;;;;;;;15.60;99.90;;;;;;5096049;28;19908;-62
2021/07/20 03:17:57;;;;;;;;;;;15.60;99.90;;;;;;5094751;28;19919;-62
2021/07/20 03:20:23;;;;;;;;;;;15.60;99.90;;;;;;5094107;28;19908;-62
2021/07/20 03:22:49;;;;;;;;;;;15.70;99.90;;;;;;5094040;28;19919;-63
2021/07/20 03:25:15;;;;;;;;;;;15.70;99.90;;;;;;5093954;28;20242;-63
2021/07/20 03:27:41;;;;;;;;;;;15.70;99.90;;;;;;5094229;28;19908;-62
2021/07/20 03:30:08;;;;;;;;;;;15.60;99.90;;;;;;5093920;28;19908;-63
2021/07/20 03:32:34;;;;;;;;;;;15.70;99.90;;;;;;5094953;28;20325;-63
2021/07/20 03:35:00;;;;;;;;;;;15.70;99.90;;;;;;5095114;28;20393;-63
2021/07/20 03:37:26;;;;;;;;;;;15.70;99.90;;;;;;5095582;28;19934;-63
2021/07/20 03:39:53;;;;;;;;;;;15.70;99.90;;;;;;5093858;28;20372;-63
2021/07/20 03:42:19;;;;;;;;;;;15.70;99.90;;;;;;5095024;28;19916;-63
2021/07/20 03:44:45;;;;;;;;;;;15.70;99.90;;;;;;5093828;28;19908;-63
2021/07/20 03:47:11;;;;;;;;;;;15.70;99.90;;;;;;5093992;28;19908;-63
2021/07/20 03:49:37;;;;;;;;;;;15.80;99.90;;;;;;5093488;28;19912;-63
2021/07/20 03:52:03;;;;;;;;;;;15.80;99.90;;;;;;5093282;28;19913;-63
2021/07/20 03:54:30;;;;;;;;;;;15.90;99.90;;;;;;5093481;28;20369;-63
2021/07/20 03:56:56;;;;;;;;;;;15.80;99.90;;;;;;5094827;28;19908;-63
2021/07/20 03:59:22;;;;;;;;;;;15.80;99.90;;;;;;5093364;28;19908;-62
2021/07/20 04:01:48;;;;;;;;;;;15.90;99.90;;;;;;5082741;28;19916;-62
2021/07/20 04:04:14;;;;;;;;;;;15.80;99.90;;;;;;5097862;28;20273;-62
2021/07/20 04:06:40;;;;;;;;;;;15.90;99.90;;;;;;5075642;28;19912;-62
2021/07/20 04:09:07;;;;;;;;;;;16.00;99.90;;;;;;5080696;28;19916;-62
2021/07/20 04:11:33;;;;;;;;;;;16.00;99.90;;;;;;5078751;28;19912;-63
2021/07/20 04:13:59;;;;;;;;;;;16.00;99.90;;;;;;5080477;28;19920;-63
2021/07/20 04:16:25;;;;;;;;;;;16.10;99.90;;;;;;5077364;28;19916;-62
2021/07/20 04:18:51;;;;;;;;;;;16.10;99.90;;;;;;5096342;28;19912;-62
2021/07/20 04:21:17;;;;;;;;;;;16.20;99.90;;;;;;5080449;28;19912;-62
2021/07/20 04:23:44;;;;;;;;;;;16.20;99.90;;;;;;5076772;28;19931;-63
2021/07/20 04:26:11;;;;;;;;;;;16.20;99.90;;;;;;5080372;28;19912;-64
2021/07/20 04:28:37;;;;;;;;;;;16.20;99.90;;;;;;5093818;28;20387;-63
2021/07/20 04:31:03;;;;;;;;;;;16.20;99.90;;;;;;5095932;28;19912;-63
2021/07/20 04:33:33;;;;;;;;;;;16.20;99.90;;;;;;5095014;28;19923;-62
2021/07/20 04:35:59;;;;;;;;;;;16.30;99.90;;;;;;5080005;28;19943;-62
2021/07/20 04:38:25;;;;;;;;;;;16.30;99.90;;;;;;5079143;28;19912;-62
2021/07/20 04:40:51;;;;;;;;;;;16.30;99.90;;;;;;5092937;28;19924;-63
2021/07/20 04:43:17;;;;;;;;;;;16.40;99.90;;;;;;5096941;28;19936;-63
2021/07/20 04:45:44;;;;;;;;;;;16.40;99.90;;;;;;5079284;28;20365;-62
2021/07/20 04:48:11;;;;;;;;;;;16.40;99.90;;;;;;5081934;28;19919;-63
2021/07/20 04:50:37;;;;;;;;;;;16.40;99.90;;;;;;5078095;28;20261;-62
2021/07/20 04:53:03;;;;;;;;;;;16.50;99.90;;;;;;5076072;28;19920;-63
2021/07/20 04:55:34;;;;;;;;;;;16.60;99.90;;;;;;5076024;28;20362;-63
2021/07/20 04:58:03;;;;;;;;;;;16.60;99.90;;;;;;5080967;28;19924;-63
2021/07/20 05:00:29;;;;;;;;;;;16.70;99.90;;;;;;5077982;28;19923;-62
2021/07/20 05:02:56;;;;;;;;;;;16.70;99.90;;;;;;5099015;28;20007;-62
2021/07/20 05:05:22;;;;;;;;;;;16.80;99.90;;;;;;5084717;28;20354;-61
2021/07/20 05:07:51;;;;;;;;;;;16.70;99.90;;;;;;5098681;28;19920;-62
2021/07/20 05:10:18;;;;;;;;;;;16.70;99.90;;;;;;5080260;28;19924;-61
2021/07/20 05:12:44;;;;;;;;;;;16.70;99.90;;;;;;5096140;28;19939;-62
2021/07/20 05:15:13;;;;;;;;;;;16.70;99.90;;;;;;5098699;28;19912;-62
2021/07/20 05:17:39;;;;;;;;;;;16.80;99.90;;;;;;5083773;28;19915;-62
2021/07/20 05:20:05;;;;;;;;;;;16.70;99.90;;;;;;5083588;28;19917;-63
2021/07/20 05:22:31;;;;;;;;;;;16.80;99.90;;;;;;5086561;28;19908;-60
2021/07/20 05:24:57;;;;;;;;;;;16.90;99.90;;;;;;5082279;28;20266;-62
2021/07/20 05:27:23;;;;;;;;;;;16.90;99.90;;;;;;5079988;28;19908;-62
2021/07/20 05:29:49;;;;;;;;;;;17.00;99.90;;;;;;5079706;28;19951;-61
2021/07/20 05:32:16;;;;;;;;;;;17.00;99.90;;;;;;5080512;28;19923;-62
2021/07/20 05:34:42;;;;;;;;;;;17.00;99.90;;;;;;5081801;28;19913;-62
2021/07/20 05:37:09;;;;;;;;;;;17.10;99.90;;;;;;5080146;28;19916;-61
2021/07/20 05:39:36;;;;;;;;;;;17.10;99.90;;;;;;5098347;28;19927;-63
2021/07/20 05:42:04;;;;;;;;;;;17.20;99.90;;;;;;5078990;28;19931;-62
2021/07/20 05:44:30;;;;;;;;;;;17.10;99.90;;;;;;5079355;28;19909;-62
2021/07/20 05:46:56;;;;;;;;;;;17.20;99.90;;;;;;5078485;28;19931;-62
2021/07/20 05:49:22;;;;;;;;;;;17.30;99.90;;;;;;5081171;28;20289;-62
2021/07/20 05:51:48;;;;;;;;;;;17.40;99.90;;;;;;5082049;28;19916;-63
2021/07/20 05:54:14;;;;;;;;;;;17.50;99.90;;;;;;5079717;28;19920;-63
2021/07/20 05:56:40;;;;;;;;;;;17.50;99.90;;;;;;5076721;28;19936;-62
2021/07/20 05:59:06;;;;;;;;;;;17.70;99.90;;;;;;5099492;28;19908;-63
2021/07/20 06:01:32;;;;;;;;;;;17.70;99.90;;;;;;5084923;28;19909;-62
2021/07/20 06:03:59;;;;;;;;;;;17.80;99.90;;;;;;5082284;28;20368;-63
2021/07/20 06:06:28;;;;;;;;;;;17.80;99.90;;;;;;5075486;28;19920;-63
2021/07/20 06:08:54;;;;;;;;;;;17.90;99.70;;;;;;5102887;28;19935;-64
2021/07/20 06:11:20;;;;;;;;;;;17.90;99.60;;;;;;5081189;28;20026;-63
2021/07/20 06:13:46;;;;;;;;;;;17.90;99.60;;;;;;5096591;28;19923;-63
2021/07/20 06:16:12;;;;;;;;;;;18.00;99.40;;;;;;5080598;28;19931;-62
2021/07/20 06:18:38;;;;;;;;;;;18.00;98.60;;;;;;5072810;28;20258;-62
2021/07/20 06:21:05;;;;;;;;;;;18.00;99.10;;;;;;5081400;28;19955;-62
2021/07/20 06:23:35;;;;;;;;;;;18.10;98.40;;;;;;5078044;28;19913;-62
2021/07/20 06:26:01;;;;;;;;;;;18.20;98.60;;;;;;5079936;28;19908;-62
2021/07/20 06:28:27;;;;;;;;;;;18.20;98.40;;;;;;5073784;28;19916;-62
2021/07/20 06:30:53;;;;;;;;;;;18.30;98.70;;;;;;5102197;28;19915;-62
2021/07/20 06:33:19;;;;;;;;;;;18.40;98.60;;;;;;5099780;28;20396;-62
2021/07/20 06:35:46;;;;;;;;;;;18.50;98.00;;;;;;5075927;28;19916;-62
2021/07/20 06:38:15;;;;;;;;;;;18.60;97.40;;;;;;5097516;28;19920;-63
2021/07/20 06:40:42;;;;;;;;;;;18.70;97.40;;;;;;5072237;28;19924;-63
2021/07/20 06:43:08;;;;;;;;;;;18.80;97.20;;;;;;5098326;28;20388;-62
2021/07/20 06:45:37;;;;;;;;;;;19.00;96.80;;;;;;5102578;28;19908;-62
2021/07/20 06:48:03;;;;;;;;;;;18.80;96.10;;;;;;5083429;28;19916;-63
2021/07/20 06:50:29;;;;;;;;;;;18.80;95.90;;;;;;5088822;28;19955;-63
2021/07/20 06:52:55;;;;;;;;;;;18.40;95.90;;;;;;5088772;28;19961;-63
2021/07/20 06:55:22;;;;;;;;;;;18.40;96.60;;;;;;5082864;28;19920;-62
2021/07/20 06:57:48;;;;;;;;;;;18.50;96.30;;;;;;5085725;28;19920;-63
2021/07/20 07:00:17;;;;;;;;;;;18.60;96.10;;;;;;5083831;28;19912;-63
2021/07/20 07:02:43;;;;;;;;;;;18.80;96.60;;;;;;5084303;28;19908;-63
2021/07/20 07:05:10;;;;;;;;;;;19.00;96.00;;;;;;5080583;28;19919;-62
2021/07/20 07:07:36;;;;;;;;;;;19.20;95.90;;;;;;5103445;28;19920;-63
2021/07/20 07:10:02;;;;;;;;;;;19.20;94.60;;;;;;5084874;28;19913;-63
2021/07/20 07:12:28;;;;;;;;;;;19.20;95.20;;;;;;5084929;28;19924;-63
2021/07/20 07:14:54;;;;;;;;;;;19.30;94.90;;;;;;5083333;28;20365;-63
2021/07/20 07:17:20;;;;;;;;;;;19.40;94.10;;;;;;5079779;28;20388;-63
2021/07/20 07:19:47;;;;;;;;;;;19.50;93.90;;;;;;5088995;28;19923;-62
2021/07/20 07:22:13;;;;;;;;;;;19.50;93.50;;;;;;5100312;28;19903;-63
2021/07/20 07:24:39;;;;;;;;;;;19.40;92.90;;;;;;5075948;28;19911;-63
2021/07/20 07:27:05;;;;;;;;;;;19.40;93.40;;;;;;5083459;28;19915;-63
2021/07/20 07:29:31;;;;;;;;;;;19.30;93.30;;;;;;5085113;28;19908;-63
2021/07/20 07:31:57;;;;;;;;;;;19.30;93.20;;;;;;5101517;28;19904;-63
2021/07/20 07:34:23;;;;;;;;;;;19.30;93.50;;;;;;5079183;28;20288;-63
2021/07/20 07:36:49;;;;;;;;;;;19.30;94.00;;;;;;5084697;28;19931;-64
2021/07/20 07:39:15;;;;;;;;;;;19.20;94.10;;;;;;5092155;28;20353;-63
2021/07/20 07:41:46;;;;;;;;;;;19.30;93.50;;;;;;5079797;28;20277;-63
2021/07/20 07:44:12;;;;;;;;;;;19.50;93.20;;;;;;5083865;28;19911;-63
2021/07/20 07:46:38;;;;;;;;;;;19.50;93.00;;;;;;5086729;28;19916;-64
2021/07/20 07:49:04;;;;;;;;;;;19.50;92.90;;;;;;5081959;28;19918;-64
2021/07/20 07:51:30;;;;;;;;;;;19.90;93.10;;;;;;5099487;28;19904;-64
2021/07/20 07:53:59;;;;;;;;;;;20.10;91.60;;;;;;5083473;28;20905;-63
2021/07/20 07:56:28;;;;;;;;;;;20.20;91.50;;;;;;5080286;28;19904;-62
2021/07/20 07:58:55;;;;;;;;;;;20.10;91.60;;;;;;5080574;28;19904;-64
2021/07/20 08:01:21;;;;;;;;;;;20.10;91.70;;;;;;5083226;28;19904;-64
2021/07/20 08:03:47;;;;;;;;;;;20.00;91.60;;;;;;5083611;28;20276;-64
2021/07/20 08:06:19;;;;;;;;;;;19.80;92.40;;;;;;5083316;28;19943;-64
2021/07/20 08:08:45;;;;;;;;;;;19.90;92.20;;;;;;5081290;28;19915;-64
2021/07/20 08:11:11;;;;;;;;;;;20.10;92.50;;;;;;5095404;28;19908;-63
2021/07/20 08:13:38;;;;;;;;;;;20.10;92.10;;;;;;5081632;28;20293;-63
2021/07/20 08:16:05;;;;;;;;;;;20.30;91.70;;;;;;5084745;28;20276;-63
2021/07/20 08:18:31;;;;;;;;;;;20.40;91.50;;;;;;5103293;28;20249;-64
2021/07/20 08:21:02;;;;;;;;;;;20.20;91.10;;;;;;5100176;28;19911;-65
2021/07/20 08:23:29;;;;;;;;;;;20.40;91.60;;;;;;5101132;28;19942;-64
2021/07/20 08:25:56;;;;;;;;;;;20.70;90.90;;;;;;5084918;28;19911;-63
2021/07/20 08:28:26;;;;;;;;;;;20.90;90.60;;;;;;5084348;28;19904;-64
2021/07/20 08:30:53;;;;;;;;;;;20.80;90.10;;;;;;5086774;28;19904;-64
2021/07/20 08:33:22;;;;;;;;;;;20.90;89.90;;;;;;5099466;28;19916;-64
2021/07/20 08:35:48;;;;;;;;;;;20.90;89.40;;;;;;5076862;28;19909;-64
2021/07/20 08:38:14;;;;;;;;;;;21.20;87.50;;;;;;5098905;28;20395;-65
2021/07/20 08:40:50;;;;;;;8.02;2.13;;;21.60;87.40;;;;;;5090227;28;20403;-64
2021/07/20 08:43:32;;;;;;;10.00;2.30;;;21.60;85.30;;;;;;5093281;28;20399;-64
2021/07/20 08:46:26;;;;;;;9.57;2.40;;;21.30;84.30;;;;;;5092952;28;20760;-64
2021/07/20 08:49:28;;;;;;;8.30;2.10;;;21.10;86.60;;;;;;5076076;28;20713;-65
2021/07/20 08:52:02;;;;;;;7.45;2.10;;;21.00;87.30;;;;;;5084207;28;20384;-64
2021/07/20 08:54:54;;;;;;;8.30;2.13;;;21.10;85.90;;;;;;5091448;28;20408;-66
2021/07/20 08:57:41;;;;;;;8.18;2.10;;;21.20;87.40;;;;;;5091474;28;20364;-64
2021/07/20 09:00:16;;;;;;;7.13;2.00;;;21.10;86.20;;;;;;5091982;28;20710;-65
2021/07/20 09:03:00;;;;;;;8.38;2.00;;;21.10;85.60;;;;;;5092602;28;20364;-65
2021/07/20 09:05:28;;;;;;;7.55;1.83;;;21.20;85.50;;;;;;5093028;28;20842;-65
2021/07/20 09:08:08;;;;;;;8.25;2.13;;;21.80;84.60;;;;;;5091340;28;20741;-64
2021/07/20 09:10:44;;;;;;;5.78;1.80;;;22.10;82.50;;;;;;5092542;28;20369;-65
2021/07/20 09:13:12;;;;;;;5.85;1.70;;;22.50;81.70;;;;;;5074727;28;20401;-65
2021/07/20 09:15:45;;;;;;;11.10;1.90;;;22.80;77.70;;;;;;5091276;28;20379;-64
2021/07/20 09:18:19;;;;;;;7.85;1.70;;;23.00;74.10;;;;;;5075316;28;20369;-64
2021/07/20 09:20:45;;;;;;;13.02;4.45;;;22.70;74.20;;;;;;5091325;28;20453;-65
2021/07/20 09:23:16;;;;;;;;;;;23.30;72.90;;;;;;5092365;28;20371;-65
2021/07/20 09:26:02;;;;;;;;;;;23.50;69.40;;;;;;5092857;28;19911;-65
2021/07/20 09:28:37;;;;;;;;;;;23.50;66.90;;;;;;5093483;28;19915;-65
2021/07/20 09:31:07;;;;;;;;;;;23.70;65.40;;;;;;5093708;28;20325;-64
2021/07/20 09:33:36;;;;;;;;;;;24.10;63.70;;;;;;5093766;28;19960;-64
2021/07/20 09:36:02;;;;;;;;;;;23.90;63.00;;;;;;5093718;28;19927;-64
2021/07/20 09:38:46;;;;;;;;;;;23.80;62.40;;;;;;5080223;28;20349;-64
2021/07/20 09:41:18;;;;;;;;;;;23.80;63.10;;;;;;5073413;28;19923;-65
2021/07/20 09:44:07;;;;;;;;;;;24.50;62.40;;;;;;5073538;28;19904;-65
2021/07/20 09:46:33;;;;;;;;;;;24.70;62.90;;;;;;5070377;28;20433;-65
2021/07/20 09:49:00;;;;;;;;;;;24.70;61.00;;;;;;5073392;28;19909;-64
2021/07/20 09:51:29;;;;;;;;;;;24.70;61.30;;;;;;5072619;28;19912;-65
2021/07/20 09:54:14;;;;;;;;;;;24.90;62.50;;;;;;5073369;28;19920;-65
2021/07/20 09:57:09;;;;;;;;;;;24.60;61.80;;;;;;5073141;28;19904;-65
2021/07/20 09:59:53;;;;;;;;;;;24.20;63.70;;;;;;5053728;28;19905;-65
2021/07/20 10:02:37;;;;;;;;;;;23.90;65.70;;;;;;5073236;28;20349;-65
2021/07/20 10:05:30;;;;;;;;;;;23.90;65.80;;;;;;5073085;28;19911;-65
2021/07/20 10:07:59;;;;;;;5.30;1.80;;;23.20;63.50;;;;;;5079032;28;20412;-66
2021/07/20 10:10:42;;;;;;;5.30;1.53;;;23.30;64.50;;;;;;5073857;28;20372;-66
2021/07/20 10:13:36;;;;;;;4.97;1.70;;;23.20;63.70;;;;;;5090457;28;20391;-65
2021/07/20 10:16:39;;;;;;;5.27;1.80;;;23.60;63.00;;;;;;5076511;28;20377;-63
2021/07/20 10:19:10;;;;;;;3.20;1.70;;;24.20;59.50;;;;;;5093704;28;20372;-63
2021/07/20 10:21:40;;;;;;;3.95;1.95;;;24.30;58.50;;;;;;5094828;28;20371;-63
2021/07/20 10:24:13;;;;;;;4.05;1.80;;;24.20;59.00;;;;;;5078252;28;20377;-63
2021/07/20 10:26:54;;;;;;;4.70;1.60;;;24.40;57.90;;;;;;5061316;28;20387;-63
2021/07/20 10:29:41;;;;;;;3.47;1.70;;;24.50;58.20;;;;;;5094495;28;20361;-63
2021/07/20 10:32:22;;;;;;;9.80;2.03;;;24.30;57.00;;;;;;5095673;28;20361;-63
2021/07/20 10:34:53;;;;;;;20.10;1.98;;;24.40;58.20;;;;;;5095752;28;20404;-63
2021/07/20 10:37:22;;;;;;;6.45;2.00;;;23.90;58.00;;;;;;5090133;28;20390;-63
2021/07/20 10:39:55;;;;;;;4.35;1.92;;;23.60;57.90;;;;;;5074224;28;20382;-62
2021/07/20 10:42:49;;;;;;;17.80;2.55;;;23.60;58.20;;;;;;5075318;28;20470;-63
2021/07/20 10:45:16;;;;;;;5.70;2.00;;;24.20;57.20;;;;;;5066983;28;20895;-62
2021/07/20 10:48:13;;;;;;;5.28;2.00;;;24.70;54.20;;;;;;5094434;28;20365;-63
2021/07/20 10:50:45;;;;;;;5.38;1.80;;;25.30;53.50;;;;;;5079697;28;20368;-63
2021/07/20 10:53:31;;;;;;;11.23;2.53;;;25.60;52.70;;;;;;5095013;28;20400;-63
2021/07/20 10:56:06;;;;;;;6.15;2.38;;;25.10;50.40;;;;;;5095567;28;20387;-62
2021/07/20 10:58:43;;;;;;;8.70;2.25;;;24.00;52.50;;;;;;5095574;28;20372;-62
2021/07/20 11:01:17;;;;;;;4.80;2.27;;;23.10;52.10;;;;;;5093815;28;20395;-63
2021/07/20 11:04:06;;;;;;;42.58;3.78;;;22.90;53.30;;;;;;5095473;28;20365;-63
2021/07/20 11:06:33;;;;;;;8.00;2.40;;;23.00;53.90;;;;;;5095153;28;20381;-63
2021/07/20 11:09:00;;;;;;;5.80;2.30;;;23.70;52.80;;;;;;5093481;28;20380;-63
2021/07/20 11:11:30;;;;;;;7.80;2.58;;;24.40;52.30;;;;;;5076976;28;20841;-63
2021/07/20 11:13:56;;;;;;;6.47;2.20;;;24.60;51.90;;;;;;5076767;28;20412;-63
2021/07/20 11:16:22;;;;;;;5.50;2.33;;;24.10;50.60;;;;;;5093584;28;20841;-62
2021/07/20 11:18:49;;;;;;;6.57;2.63;;;23.10;54.20;;;;;;5076641;28;20376;-61
2021/07/20 11:21:17;;;;;;;9.10;2.75;;;22.50;56.40;;;;;;5093434;28;20379;-62
2021/07/20 11:23:44;;;;;;;6.93;2.72;;;22.40;58.20;;;;;;5093975;28;20376;-63
2021/07/20 11:26:10;;;;;;;7.07;2.55;;;22.80;58.60;;;;;;5076721;28;20710;-63
2021/07/20 11:28:38;;;;;;;4.88;2.47;;;23.70;58.00;;;;;;5094804;28;20380;-63
2021/07/20 11:31:08;;;;;;;6.65;2.63;;;24.30;55.50;;;;;;5093319;28;20383;-62
2021/07/20 11:33:38;;;;;;;5.22;2.50;;;24.40;54.90;;;;;;5076906;28;20390;-61
2021/07/20 11:36:04;;;;;;;7.22;2.53;;;23.70;54.50;;;;;;5093600;28;20853;-62
2021/07/20 11:38:30;;;;;;;6.38;2.70;;;23.90;55.70;;;;;;5076188;28;20380;-62
2021/07/20 11:41:35;;;;;;;4.68;2.70;;;23.90;54.20;;;;;;5059395;28;20400;-63
2021/07/20 11:44:26;;;;;;;5.35;2.80;;;23.20;54.50;;;;;;5094011;28;20388;-63
2021/07/20 11:47:35;;;;;;;16.57;2.90;;;23.20;56.80;;;;;;5094314;28;20372;-63
2021/07/20 11:50:06;;;;;;;5.75;3.05;;;23.20;54.50;;;;;;5083784;28;20856;-63
2021/07/20 11:52:41;;;;;;;252.57;15.13;;;23.50;55.30;;;;;;5094569;28;20387;-63
2021/07/20 11:55:16;;;;;;;7.05;3.03;;;23.40;54.90;;;;;;5093867;28;20400;-63
2021/07/20 11:58:06;;;;;;;8.85;2.80;;;23.10;55.20;;;;;;5093364;28;20361;-62
2021/07/20 12:00:57;;;;;;;7.43;2.87;;;22.60;54.00;;;;;;5094179;28;20380;-64
2021/07/20 12:03:55;;;;;;;5.32;2.88;;;22.30;57.10;;;;;;5093827;28;20368;-62
2021/07/20 12:06:35;;;;;;;7.65;3.10;;;21.90;58.20;;;;;;5093018;28;20384;-62
2021/07/20 12:09:21;;;;;;;4.38;2.92;;;22.20;58.30;;;;;;5076117;28;20733;-62
2021/07/20 12:11:49;;;;;;;9.13;3.28;;;22.10;58.80;;;;;;5093231;28;20368;-62
2021/07/20 12:14:15;;;;;;;6.07;3.20;;;22.60;57.80;;;;;;5075625;28;20412;-62
2021/07/20 12:16:41;;;;;;;7.43;2.92;;;22.80;57.70;;;;;;5093772;28;20364;-63
2021/07/20 12:19:08;;;;;;;8.18;3.13;;;22.70;57.20;;;;;;5093454;28;20451;-62
2021/07/20 12:21:34;;;;;;;8.73;3.10;;;22.30;58.10;;;;;;5093521;28;20377;-61
2021/07/20 12:24:10;;;;;;;4.50;3.10;;;22.10;58.30;;;;;;5091718;28;20385;-62
2021/07/20 12:26:37;;;;;;;10.40;3.45;;;22.00;58.20;;;;;;5093543;28;20377;-62
2021/07/20 12:29:08;;;;;;;6.53;3.53;;;22.10;59.30;;;;;;5092092;28;20383;-62
2021/07/20 12:31:34;;;;;;;6.38;3.10;;;22.40;59.40;;;;;;5092173;28;20380;-63
2021/07/20 12:34:00;;;;;;;8.07;3.87;;;22.40;58.40;;;;;;5093110;28;20392;-63
2021/07/20 12:36:27;;;;;;;6.82;3.20;;;22.40;58.70;;;;;;5092113;28;20404;-62
2021/07/20 12:39:10;;;;;;;6.25;3.45;;;22.10;59.60;;;;;;5075759;28;20358;-61
2021/07/20 12:41:37;;;;;;;4.67;3.10;;;22.00;59.10;;;;;;5072624;28;20394;-62
2021/07/20 12:44:03;;;;;;;7.25;3.92;;;22.20;58.30;;;;;;5071681;28;20381;-62
2021/07/20 12:46:30;;;;;;;11.95;3.30;;;22.50;59.50;;;;;;5071551;28;20373;-61
2021/07/20 12:48:58;;;;;;;7.90;3.70;;;22.30;57.50;;;;;;5071070;28;20464;-62
2021/07/20 12:51:25;;;;;;;8.15;3.60;;;22.20;58.20;;;;;;5072596;28;20400;-62
2021/07/20 12:53:53;;;;;;;5.63;3.35;;;22.40;59.10;;;;;;5072541;28;20414;-62
2021/07/20 12:56:24;;;;;;;5.83;3.40;;;22.70;58.00;;;;;;5072748;28;20390;-62
2021/07/20 12:59:10;;;;;;;6.63;3.90;;;22.90;58.70;;;;;;5071573;28;20374;-62
2021/07/20 13:01:36;;;;;;;7.00;3.90;;;22.70;58.20;;;;;;5072182;28;20374;-62
2021/07/20 13:04:03;;;;;;;10.00;3.97;;;22.70;58.30;;;;;;5071217;28;20843;-62
2021/07/20 13:06:37;;;;;;;6.00;3.30;;;22.50;58.80;;;;;;5071116;28;20450;-63
2021/07/20 13:09:04;;;;;;;9.30;3.20;;;22.20;58.00;;;;;;5090562;28;20375;-62
2021/07/20 13:11:35;;;;;;;5.97;3.45;;;22.30;58.80;;;;;;5091832;28;20380;-62
2021/07/20 13:14:01;;;;;;;10.32;3.65;;;22.50;59.70;;;;;;5091370;28;20400;-64
2021/07/20 13:16:30;;;;;;;6.03;3.27;;;22.40;58.40;;;;;;5090544;28;20737;-62
2021/07/20 13:18:56;;;;;;;5.55;2.85;;;22.40;58.90;;;;;;5074254;28;20376;-62
2021/07/20 13:21:22;;;;;;;5.90;3.30;;;22.40;58.40;;;;;;5091904;28;20373;-62
2021/07/20 13:23:49;;;;;;;6.75;3.60;;;22.30;58.50;;;;;;5092254;28;20445;-62
2021/07/20 13:26:25;;;;;;;7.60;3.28;;;22.50;59.90;;;;;;5092221;28;20388;-62
2021/07/20 13:28:55;;;;;;;5.20;3.05;;;22.80;60.60;;;;;;5091195;28;20372;-62
2021/07/20 13:31:34;;;;;;;5.93;3.20;;;22.90;60.30;;;;;;5092302;28;20380;-62
2021/07/20 13:34:00;;;;;;;6.93;3.30;;;22.70;59.80;;;;;;5089968;28;20396;-62
2021/07/20 13:36:37;;;;;;;6.07;2.90;;;22.50;59.70;;;;;;5076762;28;20393;-62
2021/07/20 13:39:08;;;;;;;5.95;3.00;;;22.10;60.90;;;;;;5081859;28;20374;-62
2021/07/20 13:41:35;;;;;;;9.77;3.40;;;21.90;63.90;;;;;;5076788;28;20421;-62
2021/07/20 13:44:02;;;;;;;6.53;2.95;;;22.00;65.00;;;;;;5077041;28;20382;-63
2021/07/20 13:46:29;;;;;;;6.40;3.08;;;22.30;64.40;;;;;;5079524;28;20861;-63
2021/07/20 13:48:56;;;;;;;10.52;3.20;;;22.20;62.60;;;;;;5091810;28;20389;-61
2021/07/20 13:51:27;;;;;;;7.00;2.92;;;22.30;63.10;;;;;;5088360;28;20861;-62
2021/07/20 13:54:01;;;;;;;6.43;3.20;;;22.40;61.90;;;;;;5090062;28;20852;-62
2021/07/20 13:56:34;;;;;;;6.10;3.20;;;22.10;62.40;;;;;;5075295;28;20376;-62
2021/07/20 13:59:15;;;;;;;6.55;2.92;;;22.50;64.00;;;;;;5091806;28;20380;-62
2021/07/20 14:01:45;;;;;;;6.55;3.10;;;22.70;61.70;;;;;;5090171;28;20384;-62